createdAt,value
2022-08-26T03:42:58.576Z,100055.38
2022-08-26T03:46:11.691Z,100055.38
2022-08-26T03:49:14.259Z,100049.44
2022-08-26T03:52:18.079Z,100053.09
2022-08-26T03:55:23.980Z,100049.44
2022-08-26T03:58:27.066Z,100051.81
2022-08-26T04:01:30.790Z,100058.03
2022-08-26T04:04:35.015Z,100051.31
2022-08-26T04:07:37.551Z,100063.41
2022-08-26T04:10:40.570Z,100063.25
2022-08-26T04:13:43.129Z,100055.00
2022-08-26T04:16:47.101Z,100057.00
2022-08-26T04:19:49.564Z,100057.59
2022-08-26T04:22:52.399Z,100056.03
2022-08-26T04:25:54.935Z,100061.41
2022-08-26T04:28:57.735Z,100066.22
2022-08-26T04:32:03.040Z,100063.81
2022-08-26T04:35:06.444Z,100059.47
2022-08-26T04:38:09.203Z,100055.13
2022-08-26T04:41:15.577Z,100059.22
2022-08-26T04:44:19.576Z,100055.41
2022-08-26T04:47:22.391Z,100055.16
2022-08-26T04:50:25.844Z,100051.22
2022-08-26T04:53:29.575Z,100059.78
2022-08-26T04:56:37.615Z,100056.81
2022-08-26T04:59:40.531Z,100059.69
2022-08-26T05:02:43.230Z,100056.12
2022-08-26T05:05:46.650Z,100063.81
2022-08-26T05:08:49.110Z,100057.50
2022-08-26T05:11:52.441Z,100063.22
2022-08-26T05:14:55.196Z,100057.78
2022-08-26T05:17:59.226Z,100064.84
2022-08-26T05:21:04.707Z,100060.91
2022-08-26T05:24:11.835Z,100067.25
2022-08-26T05:27:14.862Z,100068.22
2022-08-26T05:30:18.310Z,100066.16
2022-08-26T05:33:22.091Z,100072.78
2022-08-26T05:36:28.100Z,100073.78
2022-08-26T05:39:33.043Z,100070.50
2022-08-26T05:42:35.992Z,100075.78
2022-08-26T05:45:46.097Z,100073.63
2022-08-26T05:48:49.390Z,100074.19
2022-08-26T05:51:53.412Z,100078.09
2022-08-26T05:54:56.074Z,100086.94
2022-08-26T05:57:58.537Z,100080.91
2022-08-26T06:01:16.458Z,100080.28
2022-08-26T06:04:19.998Z,100087.53
2022-08-26T06:07:42.731Z,100081.81
2022-08-26T06:10:52.579Z,100084.91
2022-08-26T06:14:03.136Z,100097.87
2022-08-26T06:17:06.965Z,100088.44
2022-08-26T06:20:12.200Z,100086.75
2022-08-26T06:23:36.441Z,100090.47
2022-08-26T06:26:39.991Z,100091.28
2022-08-26T06:29:45.667Z,100093.63
2022-08-26T06:32:48.888Z,100097.44
2022-08-26T06:35:53.645Z,100095.53
2022-08-26T06:39:02.328Z,100104.87
2022-08-26T06:42:06.107Z,100096.59
2022-08-26T06:45:09.811Z,100092.44
2022-08-26T06:48:16.083Z,100098.44
2022-08-26T06:51:23.797Z,100091.91
2022-08-26T06:54:28.437Z,100104.97
2022-08-26T06:57:32.940Z,100102.66
2022-08-26T07:00:39.316Z,100096.91
2022-08-26T07:03:44.373Z,100096.94
2022-08-26T07:06:52.951Z,100100.59
2022-08-26T07:09:56.151Z,100097.25
2022-08-26T07:13:00.821Z,100093.44
2022-08-26T07:16:08.662Z,100084.44
2022-08-26T07:19:12.427Z,100099.25
2022-08-26T07:22:15.368Z,100096.66
2022-08-26T07:25:19.470Z,100099.91
2022-08-26T07:28:23.607Z,100099.34
2022-08-26T07:31:34.768Z,100100.47
2022-08-26T07:34:42.466Z,100096.53
2022-08-26T07:37:45.370Z,100095.59
2022-08-26T07:40:47.979Z,100085.06
2022-08-26T07:43:52.439Z,100091.47
2022-08-26T07:46:55.880Z,100090.06
2022-08-26T07:49:59.767Z,100088.31
2022-08-26T07:53:03.767Z,100096.94
2022-08-26T07:56:07.500Z,100094.91
2022-08-26T07:59:14.095Z,100088.81
2022-08-26T08:02:18.099Z,100089.16
2022-08-26T08:05:22.657Z,100096.19
2022-08-26T08:08:31.064Z,100089.75
2022-08-26T08:11:34.415Z,100090.88
2022-08-26T08:14:37.611Z,100078.16
2022-08-26T08:17:43.366Z,100077.44
2022-08-26T08:20:59.248Z,100081.22
2022-08-26T08:24:08.166Z,100078.97
2022-08-26T08:27:10.775Z,100076.69
2022-08-26T08:30:15.829Z,100072.53
2022-08-26T08:33:26.120Z,100076.59
2022-08-26T08:36:33.654Z,100070.34
2022-08-26T08:39:38.920Z,100064.09
2022-08-26T08:43:10.606Z,100064.97
2022-08-26T08:46:16.772Z,100063.00
2022-08-26T08:49:25.918Z,100059.88
2022-08-26T08:52:32.353Z,100057.16
2022-08-26T08:56:13.825Z,100059.28
2022-08-26T08:59:24.230Z,100057.44
2022-08-26T09:02:37.097Z,100059.75
2022-08-26T09:05:48.549Z,100060.44
2022-08-26T09:08:52.183Z,100050.37
2022-08-26T09:11:56.375Z,100054.78
2022-08-26T09:15:14.966Z,100052.47
2022-08-26T09:18:30.193Z,100044.31
2022-08-26T09:21:33.486Z,100046.03
2022-08-26T09:24:42.153Z,100044.31
2022-08-26T09:27:53.541Z,100039.09
2022-08-26T09:31:19.426Z,100039.12
2022-08-26T09:34:27.825Z,100035.72
2022-08-26T09:37:33.406Z,100031.34
2022-08-26T09:40:36.684Z,100025.69
2022-08-26T09:43:39.199Z,100024.84
2022-08-26T09:46:52.274Z,100023.19
2022-08-26T09:50:28.927Z,100025.09
2022-08-26T09:53:37.085Z,100027.81
2022-08-26T09:56:40.084Z,100023.59
2022-08-26T09:59:43.810Z,100020.28
2022-08-26T10:02:47.533Z,100016.31
2022-08-26T10:06:17.424Z,100016.69
2022-08-26T10:09:20.711Z,100016.69
2022-08-26T10:12:23.596Z,100018.28
2022-08-26T10:15:38.396Z,100012.59
2022-08-26T10:18:46.422Z,100009.47
2022-08-26T10:22:03.528Z,100003.37
2022-08-26T10:25:12.692Z,100006.03
2022-08-26T10:28:26.908Z,100003.31
2022-08-26T10:31:40.166Z,100004.88
2022-08-26T10:34:43.932Z,100002.66
2022-08-26T10:37:56.490Z,99996.38
2022-08-26T10:41:13.731Z,99991.91
2022-08-26T10:44:20.976Z,99986.13
2022-08-26T10:47:35.251Z,99983.47
2022-08-26T10:50:47.594Z,99980.94
2022-08-26T10:54:11.904Z,99977.38
2022-08-26T10:57:47.208Z,99971.78
2022-08-26T11:04:38.361Z,99968.81
2022-08-26T11:07:46.294Z,99964.19
2022-08-26T11:10:52.095Z,99968.00
2022-08-26T11:14:01.259Z,99956.34
2022-08-26T11:17:04.836Z,99946.13
2022-08-26T11:20:29.187Z,99955.00
2022-08-26T11:23:31.901Z,99954.59
2022-08-26T11:26:55.758Z,99946.09
2022-08-26T11:30:04.950Z,99951.56
2022-08-26T11:33:08.494Z,99942.13
2022-08-26T11:36:28.072Z,99934.53
2022-08-26T11:39:36.575Z,99932.84
2022-08-26T11:43:03.000Z,99931.22
2022-08-26T11:46:07.500Z,99924.75
2022-08-26T11:49:12.996Z,99918.41
2022-08-26T11:52:22.080Z,99917.28
2022-08-26T11:55:24.902Z,99918.09
2022-08-26T11:58:28.789Z,99919.75
2022-08-26T12:01:35.730Z,99919.25
2022-08-26T12:04:43.083Z,99911.56
2022-08-26T12:07:50.848Z,99903.63
2022-08-26T12:11:09.422Z,99897.03
2022-08-26T12:14:27.656Z,99900.91
2022-08-26T12:17:31.839Z,99894.13
2022-08-26T12:20:48.229Z,99896.22
2022-08-26T12:23:56.599Z,99893.53
2022-08-26T12:27:11.169Z,99885.88
2022-08-26T12:30:21.863Z,99885.72
2022-08-26T12:33:26.082Z,99889.75
2022-08-26T12:36:42.951Z,99876.03
2022-08-26T12:39:48.052Z,99877.06
2022-08-26T12:42:51.144Z,99872.09
2022-08-26T12:46:02.241Z,99867.44
2022-08-26T12:49:07.774Z,99861.34
2022-08-26T12:52:31.490Z,99856.97
2022-08-26T12:55:52.833Z,99856.69
2022-08-26T12:59:21.773Z,99847.06
2022-08-26T13:02:38.348Z,99851.47
2022-08-26T13:05:40.852Z,99848.97
2022-08-26T13:08:51.802Z,99840.97
2022-08-26T13:11:54.292Z,99846.34
2022-08-26T13:14:58.825Z,99832.34
2022-08-26T13:18:02.382Z,99828.13
2022-08-26T13:21:19.243Z,99820.38
2022-08-26T13:24:38.161Z,99818.28
2022-08-26T13:27:40.980Z,99800.78
2022-08-26T13:30:47.833Z,99801.84
2022-08-26T13:33:51.185Z,99796.31
2022-08-26T13:36:56.276Z,99808.94
2022-08-26T13:39:59.177Z,99799.59
2022-08-26T13:43:01.903Z,99793.13
2022-08-26T13:46:04.984Z,99791.66
2022-08-26T13:49:08.084Z,99789.72
2022-08-26T13:52:13.222Z,99781.63
2022-08-26T13:55:17.049Z,99777.16
2022-08-26T13:58:20.762Z,99790.28
2022-08-26T14:01:23.744Z,99776.91
2022-08-26T14:04:27.535Z,99768.78
2022-08-26T14:07:30.169Z,99774.81
2022-08-26T14:10:33.562Z,99764.00
2022-08-26T14:13:36.511Z,99748.28
2022-08-26T14:16:59.544Z,99741.31
2022-08-26T14:20:04.943Z,99753.16
2022-08-26T14:23:13.974Z,99753.41
2022-08-26T14:26:28.658Z,99749.56
2022-08-26T14:29:34.651Z,99739.78
2022-08-26T14:32:40.652Z,99742.94
2022-08-26T14:35:47.931Z,99739.94
2022-08-26T14:38:53.663Z,99738.03
2022-08-26T14:41:57.010Z,99734.59
2022-08-26T14:45:02.985Z,99736.16
2022-08-26T14:48:06.092Z,99737.59
2022-08-26T14:51:08.766Z,99741.94
2022-08-26T14:54:13.037Z,99737.31
2022-08-26T14:57:16.047Z,99738.44
2022-08-26T15:00:20.538Z,99739.91
2022-08-26T15:03:23.086Z,99744.81
2022-08-26T15:06:26.244Z,99736.66
2022-08-26T15:09:31.820Z,99729.75
2022-08-26T15:12:34.792Z,99717.22
